Terminal Aerodrome Forecast
Issued by NWS

Current Version | Previous Version | Text Only | Print | Product List | Glossary On
Versions: 1 2 3 4 5 6 7 8 9 10 11 12 13
000
FTUS45 KRIW 051126
TAFCPR
TAF
KCPR 051126Z 0512/0612 24008KT P6SM FEW100 BKN250
     FM051600 22014G22KT P6SM FEW110
     FM052300 20010KT P6SM SCT110=

USA.gov is the U.S. government's official web portal to all federal, state and local government web resources and services.